Liliu Sappinen

Scout - Flora
10 Dec 2028
Sunday
Process

Personality

Adaptability (5) Ambition (2) Controversy (1) Loyalty (13) Pressure (15) Professionalism (8) Sportsmanship (9) Temperament (15)

Profile

Coaching Style Democratic
License Continental C
Determination 7
Man Management 6
Motivating 8
Discipline 6
Job Satisfaction
100%
Fatigue
0%
Role Scout
Wage 31.5K p/w
Contract 14.03.2030

Performance

Behaviour Good
Training Effectiveness
39%
Player Development
25%
Injury Prevention
50%
Tactical Implementation
30%

Recent Events

Assessed a player now
Attended a recruitment meeting now
Recommended a transfer target now
Recommended a transfer target now
Recommended a transfer target now
Assessed a player now
Assessed a player now
Assessed a player now

Currently Monitoring

216
Player Club Status Ability Confidence Watched Last Observed Latest Vote
Arsen Adamov Akhmat Grozny Active 132 / 119 40% 1 09.12.2028 -
Fernando Bersano Madryn Active 119 / 127 40% 1 09.12.2028 -
Guillermo Rodríguez San Martín Active 111 / 107 40% 1 09.12.2028 -
Tobías Leiva Estudiantes Active 124 / 130 40% 3 08.12.2028 -
Siro Rosané Estudiantes Active 114 / 132 40% 3 08.12.2028 -
Darko Todorović Fakel Active 120 / 117 40% 1 08.12.2028 -
Juan Pintado Gimnasia La Plata Active 126 / 120 40% 2 07.12.2028 -
Danil Krugovoy Orenburg Active 130 / 132 40% 1 07.12.2028 -
Nazareno Fernández Colombo Los Andes Active 96 / 91 40% 1 07.12.2028 -
Alexandr Soldatenkov Sochi Active 117 / 129 40% 2 06.12.2028 -
Facundo Rodríguez Estudiantes Active 123 / 112 40% 2 06.12.2028 -
Francisco Gerometta Godoy Cruz Active 117 / 104 40% 1 06.12.2028 -
Luis Palacios Once Caldas Active 130 / 122 40% 3 05.12.2028 -
Alan Olinick Racing Active 110 / 105 40% 1 05.12.2028 -
Gabriel Díaz Patronato Active 122 / 103 40% 1 05.12.2028 -
Alcides Benítez Belgrano Active 115 / 133 40% 2 04.12.2028 -
Alessandro Nunziante Mantova Active 129 / 123 40% 1 04.12.2028 -
Ramiro Buratti River Plate Active 98 / 99 40% 1 04.12.2028 -
Walter Juárez Güemes Active 118 / 100 40% 1 04.12.2028 -
Santiago Kubiszyn Morón Active 123 / 127 40% 1 03.12.2028 -
Tomás Castro Ponce Atlanta Active 108 / 114 40% 1 03.12.2028 -
Miguel Ceccotti Güemes Active 101 / 106 40% 2 02.12.2028 -
Diego Gaitán Maipú Active 111 / 113 40% 2 02.12.2028 -
Enzo González Defensores Active 112 / 100 40% 4 02.12.2028 -
Iván Cabrera Arsenal Active 110 / 105 40% 1 02.12.2028 -
Facundo López Morón Active 114 / 110 40% 1 02.12.2028 -
Thiago Sabella Banfield Active 109 / 110 40% 1 01.12.2028 -
Lisandro Musso Central Córdoba SdE Active 105 / 101 40% 1 01.12.2028 -
Roman Volochay Akron Active 78 / 85 40% 1 01.12.2028 -
Fernando Duré Estudiantes Active 104 / 118 40% 1 30.11.2028 -
Marcos Enrique Tristán Suárez Active 111 / 116 40% 1 30.11.2028 -
Nikolay Borushnov Dinamo Minsk Active 76 / 85 40% 1 30.11.2028 -
Mikhail Klyakin BATE Active 82 / 93 40% 1 30.11.2028 -
Martín Díaz Lanús Active 98 / 110 40% 1 30.11.2028 -
Yuber Quiñónes Patriotas Active 114 / 123 40% 3 29.11.2028 -
Cesar Rubio Envigado Active 123 / 130 40% 2 29.11.2028 -
Yeferson Rodallega Envigado Active 116 / 123 40% 3 29.11.2028 -
Facundo Melillán Güemes Active 120 / 96 40% 2 29.11.2028 -
Luciano Zannier Talleres Active 111 / 95 40% 1 29.11.2028 -
Camilo Alessandria Godoy Cruz Active 115 / 112 40% 1 29.11.2028 -
Andrey Tsitsilin Baltika Active 89 / 88 40% 1 29.11.2028 -
Makar Suschiy Slutsk Active 76 / 80 40% 1 29.11.2028 -
Artem Albastov Kolomna Active 77 / 72 40% 1 29.11.2028 -
Gastón Moreyra Almirante Brown Active 117 / 111 40% 2 28.11.2028 -
Lautaro Disanto Defensores Unidos Active 113 / 106 40% 2 28.11.2028 -
Pablo Cardona Cortulua Active 111 / 106 40% 3 26.11.2028 -
Juan Antonini Estudiantes Active 116 / 113 40% 1 26.11.2028 -
Thiago Parga Huracán Active 105 / 98 40% 1 26.11.2028 -
Vladislav Drozd Isloch Active 82 / 77 40% 1 26.11.2028 -
Dylan Moody Cheltenham Town Active 133 / 138 40% 1 26.11.2028 -
Agustín Benítez Defensores Active 112 / 124 40% 1 25.11.2028 -
Bruno Leyes Godoy Cruz Active 136 / 114 40% 2 24.11.2028 -
Luka Gagnidze Dinamo Moscow Active 123 / 113 40% 1 24.11.2028 -
Alexis Maldonado Belgrano Active 127 / 109 40% 1 23.11.2028 -
Ruggero Ferrari Sassuolo Active 85 / 83 40% 1 23.11.2028 -
Robert Cook Accrington Stanley Active 114 / 109 40% 1 23.11.2028 -
Agustín Cañete Banfield Active 111 / 128 40% 1 23.11.2028 -
Lucas Más Maipú Active 108 / 112 40% 1 22.11.2028 -
Agustín Sosa Madryn Active 119 / 116 40% 1 22.11.2028 -
Matías Vilalta Giana Erminio Active 108 / 117 40% 1 22.11.2028 -
Ulíses López Barracas Central Active 103 / 90 40% 1 22.11.2028 -
Ivan Chesnakov Chernomorets Active 69 / 69 40% 1 22.11.2028 -
Nahuel Curcio Colón Active 124 / 107 40% 4 21.11.2028 -
Matías Viguet Maipú Active 120 / 104 40% 2 21.11.2028 -
Martín Campos Ferro Carril Oeste Active 118 / 103 40% 1 21.11.2028 -
Mauro Osores San Martín SJ Active 115 / 104 40% 1 21.11.2028 -
Enzo Silcan Almagro Active 121 / 115 40% 1 21.11.2028 -
Vladislav Postrigan Akron Active 81 / 78 40% 1 21.11.2028 -
Ignacio Cardozo Vélez Active 94 / 101 40% 1 21.11.2028 -
Jack Austin Chelsea Active 98 / 101 40% 1 21.11.2028 -
Brian Aguilar Tristán Suárez Active 112 / 100 40% 1 18.11.2028 -
Braian Aranda Agropecuario Argentino Active 122 / 104 40% 1 18.11.2028 -
Gerardo Díaz San Martín SJ Active 108 / 112 40% 1 17.11.2028 -
Yegor Trifonov Amkar Active 62 / 66 40% 1 17.11.2028 -
Lucas Wolfert Racing Club Active 110 / 115 40% 1 17.11.2028 -
Federico Bisanz Atlanta Active 117 / 120 40% 4 13.11.2028 -
Santiago Gutiérrez Alvarado Active 114 / 102 40% 1 13.11.2028 -
Iñaki Larthirigoyen San Telmo Active 125 / 116 40% 1 12.11.2028 -
Alexandr Lomovitskiy Torpedo-BelAZ Active 113 / 104 40% 1 12.11.2028 -
Samuel Anakwe Remo Stars Active 93 / 87 40% 2 11.11.2028 -
Santiago Sala Güemes Active 116 / 105 40% 2 10.11.2028 -
Yeison Suárez Deportivo Pereira Active 122 / 103 40% 1 10.11.2028 -
Adrián Sánchez Belgrano Active 130 / 112 40% 3 09.11.2028 -
Franco Ayunta Temperley Active 107 / 99 40% 1 09.11.2028 -
Luis Ángel Díaz Independiente Rivadavia Active 116 / 125 40% 2 08.11.2028 -
Juan Velázquez Belgrano Active 127 / 124 40% 1 08.11.2028 -
Rodrigo González Mitre Active 127 / 126 40% 1 08.11.2028 -
Nicolás Retamar Ferro Carril Oeste Active 123 / 119 40% 2 07.11.2028 -
Gianluca Pugliese Güemes Active 116 / 104 40% 1 07.11.2028 -
Alex Oyowah Rivers United Active 105 / 111 40% 2 05.11.2028 -
Agustín Morales Estudiantes Active 118 / 112 40% 2 05.11.2028 -
Matías Bergara Nueva Chicago Active 121 / 114 40% 2 04.11.2028 -
Patricio Moyano Defensores Active 126 / 118 40% 1 04.11.2028 -
Ramón González Almirante Brown Active 110 / 113 40% 1 04.11.2028 -
Alejo Dramisino Atlanta Active 122 / 129 40% 1 02.11.2028 -
Federico Álvarez Dinamo Tbilisi Active 117 / 125 40% 1 01.11.2028 -
Juan Sebastián Herrera Deportivo La Guaira Active 113 / 113 40% 1 01.11.2028 -
Radivoj Bosić Vitebsk Active 110 / 106 40% 1 30.10.2028 -
John Córdoba Millonarios Active 120 / 132 40% 4 27.10.2028 -
Julián Vera Maipú Active 106 / 102 40% 1 26.10.2028 -
Facundo Villarreal Los Andes Active 102 / 95 40% 1 26.10.2028 -
Yegor Kortsov Dinamo Brest Active 117 / 109 40% 4 24.10.2028 -
Mauro Valiente Estudiantes Active 119 / 123 40% 1 19.10.2028 -
Kirill Tsepenkov Dnepr Mogilev Active 107 / 98 40% 1 19.10.2028 -
Tomás Pozzo Godoy Cruz Active 128 / 128 40% 2 17.10.2028 -
Carlos Cantillo Jaguares Active 109 / 110 40% 1 17.10.2028 -
Karen Vardanyan Dinamo Minsk Active 104 / 100 40% 1 16.10.2028 -
Luis Olivera Defensores Unidos Active 113 / 98 40% 1 16.10.2028 -
Matías Ramírez Godoy Cruz Active 120 / 107 40% 1 15.10.2028 -
Guljigit Alykulov Dinamo Minsk Active 113 / 99 40% 1 15.10.2028 -
Franco Vedoya Central Norte Active 119 / 101 40% 1 13.10.2028 -
Tomás Ferreyra Defensores Unidos Active 115 / 110 40% 2 12.10.2028 -
Timothy Zechariah Rivers United Active 100 / 106 40% 1 12.10.2028 -
Nazareno Kihm Ferro Carril Oeste Active 117 / 129 40% 1 12.10.2028 -
Matteo Trombini Arsenal Active 105 / 100 40% 1 11.10.2028 -
José Barreto Quilmes Active 122 / 125 40% 1 08.10.2028 -
Juan David Rueda Alianza Petrolera Active 106 / 123 40% 1 08.10.2028 -
David Veliz Güemes Active 116 / 114 40% 1 02.10.2028 -
Giorgi Arabidze Torpedo Kutaisi Active 126 / 103 40% 1 21.08.2028 -
Nicolás Baigorria FCI Tallinn Lost 83 / 87 79% 1 14.08.2028 -
Jesús Amarilla Nomme Kalju Lost 96 / 98 79% 1 07.08.2028 -
Tom Davies Barnet Active 137 / 147 40% 1 07.08.2028 -
Jay McGrath Doncaster Rovers Active 115 / 108 40% 1 07.08.2028 -
Harvey Rodgers Colchester United Negotiating 116 / 122 40% 1 07.08.2028 -
Abdourahman Badamosi Paide Active 88 / 92 79% 1 19.06.2028 Approve
Vladimir Khubulov Dinamo Makhachkala Active 108 / 116 40% 1 31.05.2028 -
Gamid Agalarov Orenburg Active 113 / 109 40% 1 31.05.2028 -
Joshua Ajala Walsall Active 100 / 96 40% 1 31.05.2028 -
Fernando Costanza Krylya Sovetov Active 124 / 126 40% 1 31.05.2028 -
Alexandr Ivankov Torpedo Moscow Active 115 / 108 40% 1 31.05.2028 -
Vicente Poggi Godoy Cruz Active 117 / 112 40% 1 03.01.2028 -
Ignacio Saavedra Sochi Active 117 / 123 40% 1 03.01.2028 -
Stanislav Magkeev Fakel Active 118 / 103 40% 1 03.01.2028 -
Jacob Dicko Eng Paide Active 101 / 104 42% 1 / 1m 03.11.2027 -
Tomás Clavijo Narva Trans Active 81 / 82 72% 1 12.07.2027 Approve
Chilem Williams Ignatius Tammeka Active 74 / 79 30% 1 / 1m 16.06.2027 -
Pavel Marin Tammeka Active 96 / 96 30% 1 / 1m 16.06.2027 -
Iker Pozo Rodina Active 123 / 114 40% 4 31.05.2027 -
Yegor Noskov SKA Khabarovsk Active 91 / 101 40% 1 31.05.2027 -
Denis Fomin SKA Khabarovsk Active 92 / 92 40% 2 30.05.2027 -
Daniil Penchikov Arsenal Tula Active 105 / 107 40% 2 30.05.2027 -
Edgardo Fariña Nizhniy Novgorod Active 117 / 108 40% 1 30.05.2027 -
Garrik Levin Chelyabinsk Active 108 / 107 40% 2 29.05.2027 -
Temirkan Sundukov Dinamo Makhachkala Active 110 / 120 40% 2 28.05.2027 -
Pavel Maslov Chaika Active 105 / 111 40% 4 28.05.2027 -
Mitja Križan Rodina Active 103 / 111 40% 2 24.05.2027 -
Mario Ćurić Torpedo Moscow Active 102 / 100 40% 3 23.05.2027 -
Ítalo Ural Active 107 / 110 40% 3 23.05.2027 -
Konstantin Kovalev Volga Active 96 / 91 40% 1 23.05.2027 -
Mamadou Maïga Nizhniy Novgorod Active 107 / 113 40% 3 22.05.2027 -
Danila Vedernikov Orenburg Active 104 / 100 40% 2 22.05.2027 -
Artem Makarchuk Sochi Active 115 / 105 40% 2 18.05.2027 -
Nikita Pechenkin Sokol Active 98 / 104 40% 2 18.05.2027 -
Joe Snowdon Swindon Town Active 103 / 98 40% 1 18.05.2027 -
Vladis Emmersón Yenisey Active 105 / 106 40% 4 17.05.2027 -
Nikita Kakkoev Nizhniy Novgorod Active 120 / 105 40% 1 17.05.2027 -
Nader Mohammadi Spartak Kostroma Active 100 / 94 40% 3 16.05.2027 -
Idar Shumakhov Dinamo Makhachkala Active 108 / 104 40% 3 14.05.2027 -
Riley Owen Stevenage Active 111 / 118 40% 1 14.05.2027 -
Soslan Takulov Arsenal Tula Active 102 / 98 40% 3 13.05.2027 -
Daniil Marugin Shinnik Active 101 / 92 40% 2 11.05.2027 -
Kirill Bolshakov Arsenal Tula Active 104 / 110 40% 2 11.05.2027 -
Igor Konovalov Chernomorets Active 105 / 92 40% 4 09.05.2027 -
Alexandr Troshechkin Rotor Active 110 / 96 40% 1 04.05.2027 -
Eneko Astigarraga Real Sociedad Active 107 / 113 40% 1 04.05.2027 -
Alexey Berdnikov Chelyabinsk Active 104 / 99 40% 3 30.04.2027 -
Kirill Malyarov Shinnik Active 101 / 95 40% 3 25.04.2027 -
Maxim Shnaptsev Baltika Active 104 / 102 40% 1 25.04.2027 -
Vyacheslav Litvinov Sochi Active 106 / 112 40% 1 13.04.2027 -
Islamzhan Nasyrov Ryazan Active 87 / 95 40% 2 04.04.2027 -
Saminu Abdullahi KAMAZ Active 106 / 111 40% 2 02.04.2027 -
Faruk Gogić Spartak Kostroma Active 103 / 92 40% 1 02.04.2027 -
Eldar Ćivić Baltika Active 115 / 118 40% 3 01.04.2027 -
Artemy Kosogorov Shinnik Active 95 / 92 40% 1 01.04.2027 -
Andrés Alarcón Dinamo Makhachkala Active 119 / 117 40% 2 31.03.2027 -
Ruslan Baitukov Chelyabinsk Active 93 / 88 40% 1 31.03.2027 -
Artem Meschaninov Rodina Active 101 / 96 40% 1 29.03.2027 -
David Kokoev Yenisey Active 105 / 99 40% 2 17.03.2027 -
Alan Tsaraev Arsenal Tula Active 109 / 96 40% 1 17.03.2027 -
Khetag Khosonov Akron Active 108 / 109 40% 1 17.03.2027 -
David Shavlokhov Chernomorets Active 92 / 102 40% 3 16.03.2027 -
Vladislav Masternoy SKA Khabarovsk Active 100 / 100 40% 1 16.03.2027 -
Alan Khabalov Ufa Active 89 / 85 40% 1 16.03.2027 -
Bojan Roganović Torpedo Moscow Active 105 / 102 40% 2 06.03.2027 -
Kirill Bozhenov Sokol Active 96 / 88 40% 2 03.03.2027 -
Gleb Shevchenko Torpedo Moscow Active 111 / 104 40% 1 01.03.2027 -
Robert Mejía Orenburg Active 120 / 106 40% 1 01.03.2027 -
Ebrima Jarju Paide Active 96 / 91 69% 1 04.01.2027 Approve
Evgeniy Abramovich Slavia Mozyr Active 91 / 106 40% 3 02.01.2027 -
Igor Leschuk Dinamo Moscow Active 124 / 112 40% 1 02.01.2027 -
Said Aliev Rotor Active 99 / 87 40% 1 31.12.2026 -
Alexandr Yushin Torpedo Moscow Active 111 / 113 40% 1 31.12.2026 -
Igor Obukhov Fakel Active 101 / 93 40% 1 29.12.2026 -
Oleh Bilyk Epicentr Active 105 / 102 40% 1 29.12.2026 -
Maxim Borisko CSKA Moscow Active 131 / 116 40% 2 28.12.2026 -
Marat Bokoev Akron Active 116 / 116 40% 2 27.12.2026 -
Ilja Pomazun Spartak Moscow Active 114 / 129 40% 3 25.12.2026 -
Timur Akmurzin Dinamo Bryansk Active 86 / 90 40% 1 25.12.2026 -
Ionuţ Nedelcearu Akron Active 114 / 105 40% 1 20.12.2026 -
Sergey Volkov Rodina Active 103 / 109 40% 2 18.12.2026 -
Vitaly Gudiev Akron Active 106 / 99 40% 1 18.12.2026 -
Alkalifa Coulibaly Onze Createurs Active 95 / 94 40% 1 13.12.2026 -
Alexandr Filin Baltika Active 117 / 104 40% 1 13.12.2026 -
Soslan Kagermazov Dinamo Makhachkala Active 99 / 88 40% 1 08.12.2026 -
Giorgi Kantaria Neftekhimik Active 101 / 101 40% 1 08.12.2026 -
Anton Mitryushkin Lokomotiv Moscow Active 116 / 128 40% 1 28.11.2026 -
Alexey Kuznetsov Leningradets Active 98 / 89 40% 1 27.11.2026 -
Facundo Altamirano San Lorenzo Active 124 / 128 40% 1 24.11.2026 -
Maycon Cleiton Zira Active 114 / 96 40% 1 24.11.2026 -
Maxim Belov Dinamo Brest Active 100 / 89 40% 1 21.11.2026 -
Fahd Moufi Baltika Active 112 / 119 40% 1 19.11.2026 -
Luke Southwood Bristol Rovers Active 114 / 99 40% 1 19.11.2026 -
Luke McGee Tranmere Rovers Active 99 / 112 40% 1 19.11.2026 -
Rayan Kolli Queens Park Rangers Active 120 / 95 40% 1 01.08.2026 -
Jacobo Alcalde SKA Khabarovsk Active 90 / 84 40% 1 01.08.2026 -
Sebastián Cocimano Nueva Chicago Active 113 / 117 40% 1 01.08.2026 -